sensor_id;sensor_type;location;lat;lon;timestamp;pressure;altitude;pressure_sealevel;temperature;humidity
76434;BME280;65265;53.200;6.080;2023-01-31T00:03:40;102239.78;;;3.70;86.01
76434;BME280;65265;53.200;6.080;2023-01-31T00:08:33;102194.78;;;3.47;86.32
76434;BME280;65265;53.200;6.080;2023-01-31T00:13:26;102228.59;;;3.58;86.27
76434;BME280;65265;53.200;6.080;2023-01-31T00:18:18;102203.81;;;3.35;87.10
76434;BME280;65265;53.200;6.080;2023-01-31T00:23:09;102167.94;;;3.21;87.70
76434;BME280;65265;53.200;6.080;2023-01-31T00:28:03;102182.28;;;3.12;87.43
76434;BME280;65265;53.200;6.080;2023-01-31T00:32:54;102191.09;;;3.25;87.65
76434;BME280;65265;53.200;6.080;2023-01-31T00:37:46;102195.94;;;3.14;88.27
76434;BME280;65265;53.200;6.080;2023-01-31T00:42:38;102170.06;;;2.98;88.21
76434;BME280;65265;53.200;6.080;2023-01-31T00:47:32;102192.19;;;3.00;88.99
76434;BME280;65265;53.200;6.080;2023-01-31T00:52:25;102183.44;;;2.97;88.78
76434;BME280;65265;53.200;6.080;2023-01-31T00:57:16;102147.72;;;2.84;89.31
76434;BME280;65265;53.200;6.080;2023-01-31T01:02:08;102183.69;;;3.00;89.10
76434;BME280;65265;53.200;6.080;2023-01-31T01:07:02;102177.72;;;2.81;89.08
76434;BME280;65265;53.200;6.080;2023-01-31T01:11:54;102185.31;;;2.81;89.66
76434;BME280;65265;53.200;6.080;2023-01-31T01:16:46;102165.63;;;2.68;88.84
76434;BME280;65265;53.200;6.080;2023-01-31T01:21:37;102192.59;;;2.78;88.92
76434;BME280;65265;53.200;6.080;2023-01-31T01:26:32;102176.94;;;2.63;89.28
76434;BME280;65265;53.200;6.080;2023-01-31T01:31:24;102178.44;;;2.61;90.36
76434;BME280;65265;53.200;6.080;2023-01-31T01:36:19;102174.75;;;2.58;90.74
76434;BME280;65265;53.200;6.080;2023-01-31T01:41:12;102159.06;;;2.52;90.86
76434;BME280;65265;53.200;6.080;2023-01-31T01:46:06;102151.81;;;2.46;91.63
76434;BME280;65265;53.200;6.080;2023-01-31T01:51:00;102129.19;;;2.48;92.49
76434;BME280;65265;53.200;6.080;2023-01-31T01:55:55;102118.59;;;2.60;92.97
76434;BME280;65265;53.200;6.080;2023-01-31T02:00:48;102101.06;;;2.62;93.34
76434;BME280;65265;53.200;6.080;2023-01-31T02:05:45;102141.34;;;2.97;93.43
76434;BME280;65265;53.200;6.080;2023-01-31T02:10:41;102108.72;;;2.90;93.31
76434;BME280;65265;53.200;6.080;2023-01-31T02:15:34;102125.84;;;3.03;93.21
76434;BME280;65265;53.200;6.080;2023-01-31T02:26:05;102096.34;;;3.12;93.48
76434;BME280;65265;53.200;6.080;2023-01-31T02:36:39;102091.63;;;3.25;92.40
76434;BME280;65265;53.200;6.080;2023-01-31T02:41:35;102105.75;;;3.23;91.65
76434;BME280;65265;53.200;6.080;2023-01-31T02:46:35;102115.38;;;3.27;91.63
76434;BME280;65265;53.200;6.080;2023-01-31T02:51:35;102091.34;;;3.22;92.21
76434;BME280;65265;53.200;6.080;2023-01-31T02:56:32;102078.91;;;3.15;93.04
76434;BME280;65265;53.200;6.080;2023-01-31T03:01:27;102071.97;;;3.12;93.08
76434;BME280;65265;53.200;6.080;2023-01-31T03:06:51;102087.53;;;3.35;93.20
76434;BME280;65265;53.200;6.080;2023-01-31T03:11:51;102091.47;;;3.42;93.34
76434;BME280;65265;53.200;6.080;2023-01-31T03:16:51;102094.50;;;3.48;93.75
76434;BME280;65265;53.200;6.080;2023-01-31T03:22:06;102086.84;;;3.56;93.52
76434;BME280;65265;53.200;6.080;2023-01-31T03:27:00;102060.81;;;3.57;93.64
76434;BME280;65265;53.200;6.080;2023-01-31T03:31:56;102057.94;;;3.73;94.03
76434;BME280;65265;53.200;6.080;2023-01-31T03:36:53;102037.06;;;3.75;94.17
76434;BME280;65265;53.200;6.080;2023-01-31T03:41:54;102007.63;;;3.86;93.98
76434;BME280;65265;53.200;6.080;2023-01-31T03:46:50;101968.28;;;3.79;93.80
76434;BME280;65265;53.200;6.080;2023-01-31T03:51:47;102009.28;;;4.05;94.34
76434;BME280;65265;53.200;6.080;2023-01-31T03:56:47;101976.38;;;3.95;94.28
76434;BME280;65265;53.200;6.080;2023-01-31T04:01:47;101970.06;;;4.00;94.67
76434;BME280;65265;53.200;6.080;2023-01-31T04:06:43;101996.88;;;4.28;94.81
76434;BME280;65265;53.200;6.080;2023-01-31T04:11:37;101973.63;;;4.22;95.07
76434;BME280;65265;53.200;6.080;2023-01-31T04:16:29;101973.34;;;4.19;95.09
76434;BME280;65265;53.200;6.080;2023-01-31T04:21:22;101971.81;;;4.31;95.45
76434;BME280;65265;53.200;6.080;2023-01-31T04:26:14;101949.28;;;4.34;95.35
76434;BME280;65265;53.200;6.080;2023-01-31T04:31:06;101972.78;;;4.63;95.20
76434;BME280;65265;53.200;6.080;2023-01-31T04:35:58;101963.53;;;4.63;95.03
76434;BME280;65265;53.200;6.080;2023-01-31T04:40:51;101985.56;;;4.74;94.79
76434;BME280;65265;53.200;6.080;2023-01-31T04:45:43;101975.78;;;4.79;94.33
76434;BME280;65265;53.200;6.080;2023-01-31T04:50:35;101940.25;;;4.57;94.48
76434;BME280;65265;53.200;6.080;2023-01-31T04:55:26;101952.41;;;4.62;94.33
76434;BME280;65265;53.200;6.080;2023-01-31T05:00:20;101933.72;;;4.40;94.33
76434;BME280;65265;53.200;6.080;2023-01-31T05:05:12;101928.38;;;4.37;94.79
76434;BME280;65265;53.200;6.080;2023-01-31T05:10:07;101953.91;;;4.59;95.22
76434;BME280;65265;53.200;6.080;2023-01-31T05:15:00;101921.53;;;4.46;95.08
76434;BME280;65265;53.200;6.080;2023-01-31T05:19:54;101907.34;;;4.38;95.07
76434;BME280;65265;53.200;6.080;2023-01-31T05:24:46;101927.38;;;4.45;94.86
76434;BME280;65265;53.200;6.080;2023-01-31T05:29:38;101913.41;;;4.50;94.78
76434;BME280;65265;53.200;6.080;2023-01-31T05:34:30;101928.56;;;4.59;94.59
76434;BME280;65265;53.200;6.080;2023-01-31T05:39:24;101876.56;;;4.43;94.41
76434;BME280;65265;53.200;6.080;2023-01-31T05:44:16;101897.53;;;4.62;94.31
76434;BME280;65265;53.200;6.080;2023-01-31T05:49:08;101898.50;;;4.74;94.29
76434;BME280;65265;53.200;6.080;2023-01-31T05:54:03;101895.06;;;4.83;93.92
76434;BME280;65265;53.200;6.080;2023-01-31T05:58:57;101868.19;;;4.85;93.75
76434;BME280;65265;53.200;6.080;2023-01-31T06:03:52;101880.91;;;4.97;93.31
76434;BME280;65265;53.200;6.080;2023-01-31T06:08:44;101837.03;;;4.86;92.62
76434;BME280;65265;53.200;6.080;2023-01-31T06:13:36;101870.72;;;5.07;92.78
76434;BME280;65265;53.200;6.080;2023-01-31T06:18:31;101856.84;;;5.02;92.05
76434;BME280;65265;53.200;6.080;2023-01-31T06:23:23;101829.81;;;5.02;92.09
76434;BME280;65265;53.200;6.080;2023-01-31T06:28:15;101820.66;;;5.04;91.66
76434;BME280;65265;53.200;6.080;2023-01-31T06:33:07;101826.78;;;5.06;91.57
76434;BME280;65265;53.200;6.080;2023-01-31T06:38:01;101804.06;;;5.08;91.94
76434;BME280;65265;53.200;6.080;2023-01-31T06:42:52;101809.81;;;5.05;92.31
76434;BME280;65265;53.200;6.080;2023-01-31T06:47:44;101818.34;;;5.17;92.08
76434;BME280;65265;53.200;6.080;2023-01-31T06:52:37;101820.69;;;5.37;91.82
76434;BME280;65265;53.200;6.080;2023-01-31T06:57:31;101783.28;;;5.23;91.20
76434;BME280;65265;53.200;6.080;2023-01-31T07:02:23;101804.06;;;5.41;90.84
76434;BME280;65265;53.200;6.080;2023-01-31T07:07:17;101780.63;;;5.22;91.17
76434;BME280;65265;53.200;6.080;2023-01-31T07:12:09;101773.34;;;5.15;91.45
76434;BME280;65265;53.200;6.080;2023-01-31T07:17:04;101764.06;;;5.15;91.55
76434;BME280;65265;53.200;6.080;2023-01-31T07:21:59;101786.28;;;5.29;91.84
76434;BME280;65265;53.200;6.080;2023-01-31T07:26:51;101783.06;;;5.20;92.19
76434;BME280;65265;53.200;6.080;2023-01-31T07:31:43;101779.53;;;5.18;92.11
76434;BME280;65265;53.200;6.080;2023-01-31T07:36:36;101780.81;;;5.13;92.45
76434;BME280;65265;53.200;6.080;2023-01-31T07:41:28;101789.25;;;5.24;92.72
76434;BME280;65265;53.200;6.080;2023-01-31T07:46:20;101806.81;;;5.32;93.05
76434;BME280;65265;53.200;6.080;2023-01-31T07:51:12;101783.94;;;5.21;93.12
76434;BME280;65265;53.200;6.080;2023-01-31T07:56:10;101766.72;;;5.17;93.06
76434;BME280;65265;53.200;6.080;2023-01-31T08:01:03;101783.56;;;5.38;93.34
76434;BME280;65265;53.200;6.080;2023-01-31T08:06:12;101777.84;;;5.40;93.49
76434;BME280;65265;53.200;6.080;2023-01-31T08:11:05;101783.34;;;5.46;94.02
76434;BME280;65265;53.200;6.080;2023-01-31T08:16:03;101766.22;;;5.44;94.29
76434;BME280;65265;53.200;6.080;2023-01-31T08:20:58;101781.28;;;5.52;94.19
76434;BME280;65265;53.200;6.080;2023-01-31T08:25:50;101745.63;;;5.39;94.55
76434;BME280;65265;53.200;6.080;2023-01-31T08:30:42;101770.13;;;5.62;94.55
76434;BME280;65265;53.200;6.080;2023-01-31T08:35:36;101733.06;;;5.52;94.29
76434;BME280;65265;53.200;6.080;2023-01-31T08:40:31;101757.34;;;5.72;94.01
76434;BME280;65265;53.200;6.080;2023-01-31T08:45:22;101708.81;;;5.56;93.98
76434;BME280;65265;53.200;6.080;2023-01-31T08:50:14;101727.81;;;5.72;94.05
76434;BME280;65265;53.200;6.080;2023-01-31T08:55:09;101710.56;;;5.68;94.24
76434;BME280;65265;53.200;6.080;2023-01-31T09:00:04;101725.69;;;5.78;94.53
76434;BME280;65265;53.200;6.080;2023-01-31T09:04:56;101708.59;;;5.64;94.66
76434;BME280;65265;53.200;6.080;2023-01-31T09:09:48;101694.03;;;5.73;95.07
76434;BME280;65265;53.200;6.080;2023-01-31T09:14:44;101703.09;;;5.93;94.90
76434;BME280;65265;53.200;6.080;2023-01-31T09:19:36;101686.19;;;5.93;94.85
76434;BME280;65265;53.200;6.080;2023-01-31T09:24:28;101649.91;;;5.83;94.80
76434;BME280;65265;53.200;6.080;2023-01-31T09:29:19;101662.81;;;5.86;94.71
76434;BME280;65265;53.200;6.080;2023-01-31T09:34:14;101685.66;;;5.97;94.73
76434;BME280;65265;53.200;6.080;2023-01-31T09:39:06;101680.22;;;6.04;94.53
76434;BME280;65265;53.200;6.080;2023-01-31T09:44:00;101654.53;;;5.88;94.58
76434;BME280;65265;53.200;6.080;2023-01-31T09:48:54;101675.38;;;5.96;95.03
76434;BME280;65265;53.200;6.080;2023-01-31T09:53:54;101684.31;;;6.02;95.64
76434;BME280;65265;53.200;6.080;2023-01-31T09:58:53;101682.13;;;5.95;96.13
76434;BME280;65265;53.200;6.080;2023-01-31T10:03:53;101699.47;;;6.01;96.75
76434;BME280;65265;53.200;6.080;2023-01-31T10:08:58;101684.44;;;5.92;97.25
76434;BME280;65265;53.200;6.080;2023-01-31T10:13:55;101676.72;;;5.91;97.48
76434;BME280;65265;53.200;6.080;2023-01-31T10:18:51;101722.94;;;6.10;97.65
76434;BME280;65265;53.200;6.080;2023-01-31T10:23:49;101704.41;;;5.99;97.95
76434;BME280;65265;53.200;6.080;2023-01-31T10:28:48;101703.75;;;6.02;97.90
76434;BME280;65265;53.200;6.080;2023-01-31T10:33:46;101695.56;;;6.06;97.94
76434;BME280;65265;53.200;6.080;2023-01-31T10:38:50;101694.69;;;6.05;97.56
76434;BME280;65265;53.200;6.080;2023-01-31T10:43:56;101676.38;;;5.98;97.51
76434;BME280;65265;53.200;6.080;2023-01-31T10:48:50;101715.31;;;6.21;97.37
76434;BME280;65265;53.200;6.080;2023-01-31T10:53:53;101697.75;;;6.24;97.18
76434;BME280;65265;53.200;6.080;2023-01-31T10:58:49;101682.94;;;6.30;97.30
76434;BME280;65265;53.200;6.080;2023-01-31T11:03:51;101671.03;;;6.29;97.36
76434;BME280;65265;53.200;6.080;2023-01-31T11:08:46;101658.31;;;6.29;97.14
76434;BME280;65265;53.200;6.080;2023-01-31T11:13:39;101642.97;;;6.28;97.19
76434;BME280;65265;53.200;6.080;2023-01-31T11:18:35;101655.41;;;6.36;96.98
76434;BME280;65265;53.200;6.080;2023-01-31T11:23:30;101644.53;;;6.26;96.81
76434;BME280;65265;53.200;6.080;2023-01-31T11:28:28;101668.16;;;6.49;96.38
76434;BME280;65265;53.200;6.080;2023-01-31T11:33:40;101664.50;;;6.57;96.13
76434;BME280;65265;53.200;6.080;2023-01-31T11:38:33;101604.97;;;6.54;95.77
76434;BME280;65265;53.200;6.080;2023-01-31T11:43:29;101606.88;;;6.69;95.14
76434;BME280;65265;53.200;6.080;2023-01-31T11:48:23;101624.16;;;6.86;95.12
76434;BME280;65265;53.200;6.080;2023-01-31T11:53:22;101610.84;;;6.90;94.74
76434;BME280;65265;53.200;6.080;2023-01-31T11:58:18;101634.16;;;7.09;93.77
76434;BME280;65265;53.200;6.080;2023-01-31T12:03:14;101608.72;;;7.09;93.38
76434;BME280;65265;53.200;6.080;2023-01-31T12:08:30;101622.34;;;7.22;93.68
76434;BME280;65265;53.200;6.080;2023-01-31T12:13:23;101588.38;;;7.09;93.29
76434;BME280;65265;53.200;6.080;2023-01-31T12:18:19;101593.97;;;7.16;93.37
76434;BME280;65265;53.200;6.080;2023-01-31T12:23:25;101561.56;;;7.27;93.56
76434;BME280;65265;53.200;6.080;2023-01-31T12:28:33;101547.59;;;7.46;92.19
76434;BME280;65265;53.200;6.080;2023-01-31T12:33:44;101559.50;;;7.60;91.70
76434;BME280;65265;53.200;6.080;2023-01-31T12:38:56;101540.59;;;7.57;91.08
76434;BME280;65265;53.200;6.080;2023-01-31T12:44:24;101566.72;;;7.80;90.90
76434;BME280;65265;53.200;6.080;2023-01-31T12:49:33;101558.56;;;7.86;90.56
76434;BME280;65265;53.200;6.080;2023-01-31T12:54:41;101545.84;;;7.86;88.89
76434;BME280;65265;53.200;6.080;2023-01-31T12:59:55;101556.38;;;7.92;89.14
76434;BME280;65265;53.200;6.080;2023-01-31T13:04:56;101550.34;;;7.77;87.96
76434;BME280;65265;53.200;6.080;2023-01-31T13:09:51;101572.38;;;7.89;88.19
76434;BME280;65265;53.200;6.080;2023-01-31T13:14:48;101564.75;;;7.76;88.09
76434;BME280;65265;53.200;6.080;2023-01-31T13:19:47;101571.09;;;7.83;87.82
76434;BME280;65265;53.200;6.080;2023-01-31T13:24:41;101567.06;;;7.86;86.28
76434;BME280;65265;53.200;6.080;2023-01-31T13:29:38;101562.31;;;7.78;86.98
76434;BME280;65265;53.200;6.080;2023-01-31T13:34:36;101601.50;;;8.07;86.42
76434;BME280;65265;53.200;6.080;2023-01-31T13:39:38;101608.28;;;8.07;86.36
76434;BME280;65265;53.200;6.080;2023-01-31T13:44:31;101599.38;;;8.00;85.91
76434;BME280;65265;53.200;6.080;2023-01-31T13:49:26;101584.59;;;7.95;85.32
76434;BME280;65265;53.200;6.080;2023-01-31T13:54:24;101624.72;;;8.12;85.17
76434;BME280;65265;53.200;6.080;2023-01-31T13:59:21;101599.16;;;7.97;85.00
76434;BME280;65265;53.200;6.080;2023-01-31T14:04:35;101614.44;;;7.97;85.18
76434;BME280;65265;53.200;6.080;2023-01-31T14:09:29;101618.41;;;7.92;84.98
76434;BME280;65265;53.200;6.080;2023-01-31T14:14:36;101616.34;;;7.87;85.32
76434;BME280;65265;53.200;6.080;2023-01-31T14:20:01;101620.84;;;7.91;85.26
76434;BME280;65265;53.200;6.080;2023-01-31T14:24:55;101625.34;;;7.82;84.48
76434;BME280;65265;53.200;6.080;2023-01-31T14:29:56;101610.50;;;7.75;83.81
76434;BME280;65265;53.200;6.080;2023-01-31T14:34:49;101644.38;;;7.74;83.98
76434;BME280;65265;53.200;6.080;2023-01-31T14:39:57;101659.06;;;7.78;83.21
76434;BME280;65265;53.200;6.080;2023-01-31T14:45:14;101629.31;;;7.64;82.86
76434;BME280;65265;53.200;6.080;2023-01-31T14:50:24;101612.78;;;7.57;83.44
76434;BME280;65265;53.200;6.080;2023-01-31T14:55:30;101621.69;;;7.51;81.77
76434;BME280;65265;53.200;6.080;2023-01-31T15:00:29;101623.81;;;7.45;81.11
76434;BME280;65265;53.200;6.080;2023-01-31T15:05:38;101652.09;;;7.49;81.23
76434;BME280;65265;53.200;6.080;2023-01-31T15:10:53;101662.69;;;7.68;78.90
76434;BME280;65265;53.200;6.080;2023-01-31T15:15:47;101661.00;;;7.69;78.72
76434;BME280;65265;53.200;6.080;2023-01-31T15:20:42;101637.13;;;7.54;78.76
76434;BME280;65265;53.200;6.080;2023-01-31T15:25:38;101654.34;;;7.58;78.60
76434;BME280;65265;53.200;6.080;2023-01-31T15:30:34;101662.41;;;7.51;79.01
76434;BME280;65265;53.200;6.080;2023-01-31T15:35:30;101662.16;;;7.35;79.10
76434;BME280;65265;53.200;6.080;2023-01-31T15:40:23;101665.50;;;7.21;78.55
76434;BME280;65265;53.200;6.080;2023-01-31T15:45:20;101684.47;;;7.26;78.06
76434;BME280;65265;53.200;6.080;2023-01-31T15:50:14;101671.88;;;7.03;78.64
76434;BME280;65265;53.200;6.080;2023-01-31T15:55:12;101690.94;;;6.97;77.61
76434;BME280;65265;53.200;6.080;2023-01-31T16:00:05;101674.41;;;6.66;76.45
76434;BME280;65265;53.200;6.080;2023-01-31T16:04:58;101700.06;;;6.57;76.38
76434;BME280;65265;53.200;6.080;2023-01-31T16:09:50;101732.66;;;6.63;76.97
76434;BME280;65265;53.200;6.080;2023-01-31T16:14:46;101735.66;;;6.57;77.00
76434;BME280;65265;53.200;6.080;2023-01-31T16:19:39;101730.38;;;6.54;77.27
76434;BME280;65265;53.200;6.080;2023-01-31T16:24:31;101706.78;;;6.32;78.68
76434;BME280;65265;53.200;6.080;2023-01-31T16:29:28;101715.84;;;6.29;79.50
76434;BME280;65265;53.200;6.080;2023-01-31T16:34:27;101696.56;;;6.19;81.57
76434;BME280;65265;53.200;6.080;2023-01-31T16:39:28;101707.69;;;6.21;82.46
76434;BME280;65265;53.200;6.080;2023-01-31T16:44:22;101724.03;;;6.25;81.77
76434;BME280;65265;53.200;6.080;2023-01-31T16:49:21;101727.69;;;6.28;78.73
76434;BME280;65265;53.200;6.080;2023-01-31T16:54:18;101712.69;;;6.08;77.80
76434;BME280;65265;53.200;6.080;2023-01-31T16:59:39;101722.84;;;6.08;76.16
76434;BME280;65265;53.200;6.080;2023-01-31T17:04:31;101732.66;;;6.04;74.94
76434;BME280;65265;53.200;6.080;2023-01-31T17:09:25;101737.09;;;5.95;75.45
76434;BME280;65265;53.200;6.080;2023-01-31T17:14:17;101744.59;;;5.93;75.44
76434;BME280;65265;53.200;6.080;2023-01-31T17:19:09;101748.34;;;5.98;75.37
76434;BME280;65265;53.200;6.080;2023-01-31T17:24:01;101743.38;;;6.00;75.19
76434;BME280;65265;53.200;6.080;2023-01-31T17:28:55;101735.44;;;5.95;75.01
76434;BME280;65265;53.200;6.080;2023-01-31T17:33:47;101710.25;;;5.87;75.16
76434;BME280;65265;53.200;6.080;2023-01-31T17:38:40;101710.94;;;5.84;74.75
76434;BME280;65265;53.200;6.080;2023-01-31T17:43:32;101695.56;;;5.71;74.94
76434;BME280;65265;53.200;6.080;2023-01-31T17:48:25;101745.88;;;5.77;75.65
76434;BME280;65265;53.200;6.080;2023-01-31T17:53:17;101741.06;;;5.80;76.13
76434;BME280;65265;53.200;6.080;2023-01-31T17:58:11;101722.06;;;5.63;76.52
76434;BME280;65265;53.200;6.080;2023-01-31T18:03:03;101726.47;;;5.77;76.98
76434;BME280;65265;53.200;6.080;2023-01-31T18:07:57;101746.75;;;5.77;77.41
76434;BME280;65265;53.200;6.080;2023-01-31T18:12:48;101723.38;;;5.70;78.19
76434;BME280;65265;53.200;6.080;2023-01-31T18:17:40;101739.03;;;5.76;78.90
76434;BME280;65265;53.200;6.080;2023-01-31T18:22:32;101734.25;;;5.79;79.39
76434;BME280;65265;53.200;6.080;2023-01-31T18:27:26;101706.50;;;5.59;79.43
76434;BME280;65265;53.200;6.080;2023-01-31T18:32:18;101751.63;;;5.74;79.25
76434;BME280;65265;53.200;6.080;2023-01-31T18:37:09;101747.63;;;5.66;78.30
76434;BME280;65265;53.200;6.080;2023-01-31T18:42:08;101763.34;;;5.84;77.44
76434;BME280;65265;53.200;6.080;2023-01-31T18:47:01;101755.19;;;5.88;76.95
76434;BME280;65265;53.200;6.080;2023-01-31T18:51:53;101766.09;;;5.87;76.61
76434;BME280;65265;53.200;6.080;2023-01-31T18:56:45;101741.66;;;5.66;76.57
76434;BME280;65265;53.200;6.080;2023-01-31T19:01:37;101760.94;;;5.85;76.26
76434;BME280;65265;53.200;6.080;2023-01-31T19:06:33;101753.59;;;5.78;75.98
76434;BME280;65265;53.200;6.080;2023-01-31T19:11:27;101775.91;;;5.82;75.95
76434;BME280;65265;53.200;6.080;2023-01-31T19:16:20;101758.06;;;5.92;75.27
76434;BME280;65265;53.200;6.080;2023-01-31T19:21:13;101765.13;;;5.85;75.86
76434;BME280;65265;53.200;6.080;2023-01-31T19:26:06;101752.72;;;5.66;76.10
76434;BME280;65265;53.200;6.080;2023-01-31T19:31:01;101766.09;;;5.75;75.84
76434;BME280;65265;53.200;6.080;2023-01-31T19:35:53;101733.63;;;5.60;75.49
76434;BME280;65265;53.200;6.080;2023-01-31T19:40:46;101748.97;;;5.73;75.01
76434;BME280;65265;53.200;6.080;2023-01-31T19:45:42;101736.06;;;5.70;75.02
76434;BME280;65265;53.200;6.080;2023-01-31T19:50:34;101754.97;;;5.85;75.33
76434;BME280;65265;53.200;6.080;2023-01-31T19:55:26;101763.22;;;5.71;76.30
76434;BME280;65265;53.200;6.080;2023-01-31T20:00:18;101737.34;;;5.42;77.05
76434;BME280;65265;53.200;6.080;2023-01-31T20:05:11;101776.84;;;5.50;78.28
76434;BME280;65265;53.200;6.080;2023-01-31T20:10:05;101785.78;;;5.45;78.76
76434;BME280;65265;53.200;6.080;2023-01-31T20:14:57;101774.41;;;5.40;79.31
76434;BME280;65265;53.200;6.080;2023-01-31T20:19:49;101769.88;;;5.47;79.28
76434;BME280;65265;53.200;6.080;2023-01-31T20:24:42;101763.50;;;5.52;79.01
76434;BME280;65265;53.200;6.080;2023-01-31T20:29:35;101751.13;;;5.45;78.44
76434;BME280;65265;53.200;6.080;2023-01-31T20:34:27;101757.56;;;5.63;78.39
76434;BME280;65265;53.200;6.080;2023-01-31T20:39:19;101766.63;;;5.60;78.00
76434;BME280;65265;53.200;6.080;2023-01-31T20:44:12;101740.09;;;5.33;78.24
76434;BME280;65265;53.200;6.080;2023-01-31T20:49:05;101738.13;;;5.41;78.40
76434;BME280;65265;53.200;6.080;2023-01-31T20:53:56;101717.16;;;5.32;78.38
76434;BME280;65265;53.200;6.080;2023-01-31T20:58:48;101752.91;;;5.46;78.30
76434;BME280;65265;53.200;6.080;2023-01-31T21:03:41;101741.88;;;5.46;78.50
76434;BME280;65265;53.200;6.080;2023-01-31T21:08:33;101738.66;;;5.37;78.94
76434;BME280;65265;53.200;6.080;2023-01-31T21:13:26;101754.19;;;5.30;80.25
76434;BME280;65265;53.200;6.080;2023-01-31T21:18:19;101748.59;;;5.34;80.11
76434;BME280;65265;53.200;6.080;2023-01-31T21:23:13;101755.78;;;5.39;80.05
76434;BME280;65265;53.200;6.080;2023-01-31T21:28:04;101734.47;;;5.37;79.50
76434;BME280;65265;53.200;6.080;2023-01-31T21:32:56;101739.44;;;5.47;79.54
76434;BME280;65265;53.200;6.080;2023-01-31T21:37:48;101733.50;;;5.47;79.52
76434;BME280;65265;53.200;6.080;2023-01-31T21:42:42;101729.97;;;5.56;78.91
76434;BME280;65265;53.200;6.080;2023-01-31T21:47:33;101694.91;;;5.51;78.49
76434;BME280;65265;53.200;6.080;2023-01-31T21:52:46;101713.88;;;5.67;78.00
76434;BME280;65265;53.200;6.080;2023-01-31T21:57:39;101702.44;;;5.72;77.33
76434;BME280;65265;53.200;6.080;2023-01-31T22:02:32;101710.72;;;5.81;76.78
76434;BME280;65265;53.200;6.080;2023-01-31T22:07:26;101716.66;;;5.93;75.81
76434;BME280;65265;53.200;6.080;2023-01-31T22:12:18;101719.88;;;5.91;76.71
76434;BME280;65265;53.200;6.080;2023-01-31T22:17:11;101727.84;;;5.95;76.31
76434;BME280;65265;53.200;6.080;2023-01-31T22:22:04;101720.31;;;5.85;77.05
76434;BME280;65265;53.200;6.080;2023-01-31T22:26:56;101719.75;;;5.89;76.82
76434;BME280;65265;53.200;6.080;2023-01-31T22:31:48;101714.03;;;5.92;76.71
76434;BME280;65265;53.200;6.080;2023-01-31T22:36:39;101697.81;;;5.90;76.81
76434;BME280;65265;53.200;6.080;2023-01-31T22:41:32;101704.84;;;5.82;76.86
76434;BME280;65265;53.200;6.080;2023-01-31T22:46:26;101689.19;;;5.88;77.10
76434;BME280;65265;53.200;6.080;2023-01-31T22:51:20;101678.38;;;5.90;77.34
76434;BME280;65265;53.200;6.080;2023-01-31T22:56:14;101660.72;;;5.80;78.18
76434;BME280;65265;53.200;6.080;2023-01-31T23:01:12;101673.28;;;5.90;77.98
76434;BME280;65265;53.200;6.080;2023-01-31T23:06:05;101683.44;;;5.90;78.13
76434;BME280;65265;53.200;6.080;2023-01-31T23:11:02;101670.88;;;5.92;78.15
76434;BME280;65265;53.200;6.080;2023-01-31T23:15:54;101669.13;;;5.91;78.05
76434;BME280;65265;53.200;6.080;2023-01-31T23:20:48;101646.81;;;5.75;77.93
76434;BME280;65265;53.200;6.080;2023-01-31T23:25:40;101663.16;;;5.90;78.24
76434;BME280;65265;53.200;6.080;2023-01-31T23:30:31;101669.53;;;5.97;77.75
76434;BME280;65265;53.200;6.080;2023-01-31T23:35:23;101648.13;;;5.93;77.81
76434;BME280;65265;53.200;6.080;2023-01-31T23:40:16;101655.19;;;5.97;77.28
76434;BME280;65265;53.200;6.080;2023-01-31T23:45:09;101651.44;;;5.92;77.56
76434;BME280;65265;53.200;6.080;2023-01-31T23:50:01;101646.59;;;5.95;77.36
76434;BME280;65265;53.200;6.080;2023-01-31T23:54:53;101620.78;;;5.89;77.39
76434;BME280;65265;53.200;6.080;2023-01-31T23:59:47;101602.69;;;5.85;76.99
